createdAt,value
2023-05-19T00:01:48.643Z,101507.00
2023-05-19T00:04:15.800Z,101533.84
2023-05-19T00:06:43.030Z,101511.81
2023-05-19T00:09:10.839Z,101544.56
2023-05-19T00:11:40.345Z,101535.72
2023-05-19T00:14:09.875Z,101529.84
2023-05-19T00:16:39.544Z,101557.75
2023-05-19T00:19:10.659Z,101509.66
2023-05-19T00:21:38.888Z,101536.09
2023-05-19T00:24:06.842Z,101517.16
2023-05-19T00:26:34.150Z,101539.81
2023-05-19T00:29:01.348Z,101564.78
2023-05-19T00:31:28.327Z,101516.69
2023-05-19T00:33:55.166Z,101514.16
2023-05-19T00:36:22.043Z,101553.22
2023-05-19T00:38:49.030Z,101513.28
2023-05-19T00:41:15.835Z,101501.09
2023-05-19T00:43:42.869Z,101516.19
2023-05-19T00:46:11.255Z,101531.75
2023-05-19T00:48:38.136Z,101530.88
2023-05-19T00:51:06.903Z,101518.25
2023-05-19T00:53:35.077Z,101534.59
2023-05-19T00:56:03.495Z,101510.81
2023-05-19T00:58:34.297Z,101529.69
2023-05-19T01:01:05.306Z,101529.50
2023-05-19T01:03:37.400Z,101517.94
2023-05-19T01:06:08.051Z,101563.13
2023-05-19T01:08:37.656Z,101538.91
2023-05-19T01:11:08.796Z,101535.72
2023-05-19T01:13:36.815Z,101524.19
2023-05-19T01:16:40.670Z,101537.81
2023-05-19T01:19:41.813Z,101550.69
2023-05-19T01:22:47.757Z,101550.84
2023-05-19T01:25:45.244Z,101512.28
2023-05-19T01:28:39.746Z,101539.13
2023-05-19T01:31:07.665Z,101503.88
2023-05-19T01:33:35.158Z,101510.97
2023-05-19T01:36:03.864Z,101509.50
2023-05-19T01:38:34.018Z,101543.72
2023-05-19T01:41:03.076Z,101528.59
2023-05-19T01:43:30.083Z,101506.75
2023-05-19T01:45:59.208Z,101499.63
2023-05-19T01:48:27.251Z,101513.47
2023-05-19T01:50:57.508Z,101509.84
2023-05-19T01:53:25.178Z,101496.81
2023-05-19T01:55:57.645Z,101517.56
2023-05-19T01:58:46.422Z,101544.88
2023-05-19T02:01:48.774Z,101533.31
2023-05-19T02:04:41.508Z,101537.72
2023-05-19T02:07:11.897Z,101546.53
2023-05-19T02:09:44.905Z,101523.78
2023-05-19T02:12:29.246Z,101491.41
2023-05-19T02:15:07.479Z,101553.16
2023-05-19T02:17:54.913Z,101540.56
2023-05-19T02:20:22.620Z,101505.09
2023-05-19T02:22:49.803Z,101530.72
2023-05-19T02:25:16.955Z,101494.56
2023-05-19T02:27:43.866Z,101499.09
2023-05-19T02:30:12.079Z,101502.59
2023-05-19T02:32:40.005Z,101525.72
2023-05-19T02:35:10.000Z,101499.44
2023-05-19T02:37:36.793Z,101513.84
2023-05-19T02:40:11.908Z,101505.69
2023-05-19T02:42:41.963Z,101529.66
2023-05-19T02:45:13.098Z,101500.25
2023-05-19T02:47:43.339Z,101493.13
2023-05-19T02:50:10.533Z,101507.13
2023-05-19T02:52:37.325Z,101488.84
2023-05-19T02:55:04.540Z,101535.72
2023-05-19T02:57:33.613Z,101482.25
2023-05-19T03:00:01.568Z,101485.81
2023-05-19T03:02:29.872Z,101484.44
2023-05-19T03:04:56.944Z,101516.81
2023-05-19T03:07:26.717Z,101537.78
2023-05-19T03:09:53.874Z,101497.44
2023-05-19T03:12:22.639Z,101506.25
2023-05-19T03:14:50.181Z,101503.75
2023-05-19T03:17:17.501Z,101472.41
2023-05-19T03:19:45.460Z,101503.75
2023-05-19T03:22:14.574Z,101513.84
2023-05-19T03:24:42.294Z,101491.97
2023-05-19T03:27:10.158Z,101484.59
2023-05-19T03:29:39.934Z,101500.56
2023-05-19T03:32:09.211Z,101487.16
2023-05-19T03:34:36.038Z,101501.34
2023-05-19T03:37:02.828Z,101483.78
2023-05-19T03:39:29.702Z,101504.78
2023-05-19T03:41:56.712Z,101484.81
2023-05-19T03:47:09.744Z,101498.38
2023-05-19T03:49:37.245Z,101507.34
2023-05-19T03:52:05.271Z,101494.25
2023-05-19T03:54:32.081Z,101485.63
2023-05-19T03:56:59.382Z,101496.22
2023-05-19T03:59:26.132Z,101506.31
2023-05-19T04:01:53.521Z,101508.63
2023-05-19T04:04:22.171Z,101504.88
2023-05-19T04:06:49.243Z,101523.38
2023-05-19T04:09:16.980Z,101507.84
2023-05-19T04:11:43.852Z,101515.31
2023-05-19T04:14:10.721Z,101498.56
2023-05-19T04:16:38.062Z,101507.63
2023-05-19T04:19:05.229Z,101508.91
2023-05-19T04:21:32.009Z,101507.31
2023-05-19T04:24:01.315Z,101513.19
2023-05-19T04:26:30.945Z,101498.94
2023-05-19T04:28:57.756Z,101508.81
2023-05-19T04:31:27.182Z,101495.81
2023-05-19T04:33:54.392Z,101508.53
2023-05-19T04:36:22.147Z,101496.38
2023-05-19T04:38:51.297Z,101504.84
2023-05-19T04:41:18.816Z,101510.56
2023-05-19T04:43:46.259Z,101496.72
2023-05-19T04:46:14.171Z,101506.25
2023-05-19T04:48:43.042Z,101479.38
2023-05-19T04:51:10.555Z,101520.19
2023-05-19T04:53:37.239Z,101503.44
2023-05-19T04:56:05.357Z,101503.50
2023-05-19T04:58:32.153Z,101523.47
2023-05-19T05:00:58.836Z,101516.56
2023-05-19T05:03:26.713Z,101502.56
2023-05-19T05:05:53.861Z,101525.06
2023-05-19T05:08:23.699Z,101524.84
2023-05-19T05:10:52.258Z,101510.44
2023-05-19T05:13:21.769Z,101516.34
2023-05-19T05:15:49.262Z,101497.47
2023-05-19T05:18:16.711Z,101501.66
2023-05-19T05:20:45.121Z,101509.69
2023-05-19T05:23:16.659Z,101511.81
2023-05-19T05:25:44.577Z,101522.53
2023-05-19T05:28:11.922Z,101510.16
2023-05-19T05:30:38.697Z,101521.72
2023-05-19T05:33:10.033Z,101501.34
2023-05-19T05:35:37.234Z,101505.97
2023-05-19T05:38:05.479Z,101537.47
2023-05-19T05:40:34.276Z,101518.75
2023-05-19T05:43:03.508Z,101512.47
2023-05-19T05:45:31.159Z,101506.13
2023-05-19T05:47:59.632Z,101520.53
2023-05-19T05:50:28.544Z,101518.00
2023-05-19T05:53:02.345Z,101511.00
2023-05-19T05:55:55.850Z,101522.72
2023-05-19T06:01:05.101Z,101548.31
2023-05-19T06:03:45.873Z,101521.84
2023-05-19T06:06:20.001Z,101516.13
2023-05-19T06:08:46.556Z,101547.72
2023-05-19T06:11:13.151Z,101541.16
2023-05-19T06:13:41.394Z,101532.34
2023-05-19T06:16:08.191Z,101529.09
2023-05-19T06:18:34.813Z,101537.19
2023-05-19T06:21:08.972Z,101497.16
2023-05-19T06:23:36.001Z,101537.22
2023-05-19T06:26:02.646Z,101539.84
2023-05-19T06:28:29.167Z,101541.19
2023-05-19T06:30:55.783Z,101531.84
2023-05-19T06:33:22.318Z,101541.53
2023-05-19T06:35:48.884Z,101531.63
2023-05-19T06:38:15.453Z,101537.56
2023-05-19T06:40:42.014Z,101534.53
2023-05-19T06:43:08.568Z,101527.66
2023-05-19T06:45:35.271Z,101530.06
2023-05-19T06:48:02.082Z,101528.25
2023-05-19T06:50:28.663Z,101538.31
2023-05-19T06:52:55.221Z,101534.53
2023-05-19T06:55:21.950Z,101529.00
2023-05-19T06:57:48.610Z,101529.22
2023-05-19T07:00:18.805Z,101525.34
2023-05-19T07:02:46.625Z,101527.22
2023-05-19T07:05:13.749Z,101529.28
2023-05-19T07:07:40.499Z,101526.66
2023-05-19T07:10:07.931Z,101520.25
2023-05-19T07:12:34.614Z,101524.69
2023-05-19T07:15:01.321Z,101511.72
2023-05-19T07:17:28.084Z,101526.94
2023-05-19T07:19:54.813Z,101521.38
2023-05-19T07:22:22.444Z,101517.91
2023-05-19T07:24:49.259Z,101521.25
2023-05-19T07:27:16.057Z,101526.75
2023-05-19T07:29:42.740Z,101515.31
2023-05-19T07:32:09.597Z,101524.41
2023-05-19T07:34:36.890Z,101515.09
2023-05-19T07:37:03.735Z,101518.44
2023-05-19T07:39:32.486Z,101509.72
2023-05-19T07:41:59.501Z,101510.34
2023-05-19T07:44:27.347Z,101528.72
2023-05-19T07:46:54.699Z,101519.06
2023-05-19T07:49:21.423Z,101517.00
2023-05-19T07:51:48.126Z,101516.78
2023-05-19T07:54:14.913Z,101507.00
2023-05-19T07:56:41.650Z,101503.19
2023-05-19T07:59:08.474Z,101508.28
2023-05-19T08:01:35.240Z,101518.44
2023-05-19T08:04:02.317Z,101508.63
2023-05-19T08:06:32.169Z,101495.25
2023-05-19T08:08:58.925Z,101495.38
2023-05-19T08:11:26.130Z,101497.63
2023-05-19T08:13:54.283Z,101497.63
2023-05-19T08:16:21.547Z,101504.41
2023-05-19T08:18:48.508Z,101500.22
2023-05-19T08:21:15.143Z,101495.41
2023-05-19T08:23:41.800Z,101494.00
2023-05-19T08:26:09.640Z,101479.53
2023-05-19T08:28:36.370Z,101484.38
2023-05-19T08:31:04.245Z,101490.16
2023-05-19T08:33:33.561Z,101485.94
2023-05-19T08:36:00.370Z,101480.13
2023-05-19T08:38:27.246Z,101485.44
2023-05-19T08:40:54.782Z,101476.44
2023-05-19T08:43:21.816Z,101486.31
2023-05-19T08:45:48.617Z,101487.66
2023-05-19T08:48:32.173Z,101472.34
2023-05-19T09:01:17.280Z,101468.38
2023-05-19T09:04:18.368Z,101470.56
2023-05-19T09:06:52.623Z,101462.31
2023-05-19T09:09:32.043Z,101460.94
2023-05-19T09:12:16.214Z,101447.50
2023-05-19T09:18:14.280Z,101459.31
2023-05-19T09:20:42.840Z,101461.13
2023-05-19T09:23:14.179Z,101453.75
2023-05-19T09:25:51.120Z,101452.25
2023-05-19T09:28:33.314Z,101441.91
2023-05-19T09:31:08.497Z,101448.31
2023-05-19T09:33:37.103Z,101449.25
2023-05-19T09:36:06.280Z,101437.72
2023-05-19T09:38:33.167Z,101434.47
2023-05-19T09:41:00.944Z,101443.66
2023-05-19T09:43:33.655Z,101442.28
2023-05-19T09:46:04.488Z,101444.00
2023-05-19T09:48:31.118Z,101431.78
2023-05-19T09:50:58.325Z,101433.47
2023-05-19T09:53:27.968Z,101432.34
2023-05-19T09:55:58.121Z,101431.53
2023-05-19T09:58:26.550Z,101430.75
2023-05-19T10:00:57.242Z,101428.53
2023-05-19T10:03:25.415Z,101425.78
2023-05-19T10:05:53.555Z,101425.47
2023-05-19T10:08:20.391Z,101419.63
2023-05-19T10:10:47.924Z,101420.44
2023-05-19T10:13:16.633Z,101419.56
2023-05-19T10:15:57.433Z,101422.53
2023-05-19T10:18:26.903Z,101420.53
2023-05-19T10:20:54.948Z,101415.19
2023-05-19T10:23:23.498Z,101409.19
2023-05-19T10:25:54.943Z,101411.38
2023-05-19T10:28:25.679Z,101405.16
2023-05-19T10:30:56.717Z,101397.81
2023-05-19T10:33:37.382Z,101399.19
2023-05-19T10:36:46.109Z,101390.16
2023-05-19T10:39:22.112Z,101387.31
2023-05-19T10:42:01.113Z,101393.34
2023-05-19T10:45:13.619Z,101394.28
2023-05-19T10:47:44.393Z,101385.69
2023-05-19T10:50:11.799Z,101391.00
2023-05-19T10:52:40.026Z,101395.63
2023-05-19T10:55:16.087Z,101386.16
2023-05-19T10:57:54.263Z,101387.81
2023-05-19T11:00:28.222Z,101381.56
2023-05-19T11:03:12.029Z,101382.91
2023-05-19T11:05:38.645Z,101379.78
2023-05-19T11:08:08.254Z,101380.03
2023-05-19T11:10:34.838Z,101379.28
2023-05-19T11:13:01.574Z,101371.09
2023-05-19T11:15:28.979Z,101372.78
2023-05-19T11:17:56.024Z,101361.06
2023-05-19T11:20:22.686Z,101371.22
2023-05-19T11:23:11.271Z,101371.06
2023-05-19T11:25:41.853Z,101367.34
2023-05-19T11:28:10.476Z,101368.75
2023-05-19T11:30:37.568Z,101369.03
2023-05-19T11:33:05.270Z,101368.34
2023-05-19T11:35:36.029Z,101357.38
2023-05-19T11:38:03.646Z,101354.91
2023-05-19T11:40:33.647Z,101349.06
2023-05-19T11:43:01.959Z,101347.72
2023-05-19T11:45:31.599Z,101354.16
2023-05-19T11:48:02.701Z,101356.03
2023-05-19T11:50:31.412Z,101341.25
2023-05-19T11:53:00.252Z,101337.13
2023-05-19T11:55:27.271Z,101333.47
2023-05-19T11:58:05.592Z,101344.59
2023-05-19T12:00:40.078Z,101325.44
2023-05-19T12:03:07.751Z,101332.03
2023-05-19T12:05:41.828Z,101322.13
2023-05-19T12:08:09.847Z,101321.88
2023-05-19T12:10:38.367Z,101321.59
2023-05-19T12:13:08.307Z,101310.25
2023-05-19T12:15:35.575Z,101314.16
2023-05-19T12:18:03.254Z,101313.31
2023-05-19T12:20:35.976Z,101304.31
2023-05-19T12:23:03.845Z,101296.84
2023-05-19T12:25:31.846Z,101297.41
2023-05-19T12:28:00.382Z,101295.22
2023-05-19T12:30:29.383Z,101296.34
2023-05-19T12:32:58.278Z,101295.34
2023-05-19T12:35:33.705Z,101286.69
2023-05-19T12:38:09.497Z,101296.00
2023-05-19T12:40:37.965Z,101284.19
2023-05-19T12:43:05.583Z,101286.22
2023-05-19T12:45:42.706Z,101282.13
2023-05-19T12:48:12.809Z,101282.06
2023-05-19T12:50:39.639Z,101267.09
2023-05-19T12:53:10.714Z,101275.19
2023-05-19T12:55:44.401Z,101272.63
2023-05-19T12:58:12.795Z,101276.00
2023-05-19T13:00:45.612Z,101276.53
2023-05-19T13:03:20.454Z,101274.69
2023-05-19T13:05:49.137Z,101272.53
2023-05-19T13:08:18.280Z,101262.31
2023-05-19T13:10:46.425Z,101279.13
2023-05-19T13:13:13.485Z,101270.75
2023-05-19T13:15:45.005Z,101258.94
2023-05-19T13:18:13.794Z,101259.84
2023-05-19T13:20:42.161Z,101253.13
2023-05-19T13:23:11.037Z,101253.38
2023-05-19T13:25:37.978Z,101255.72
2023-05-19T13:28:05.999Z,101255.41
2023-05-19T13:30:34.614Z,101260.03
2023-05-19T13:33:02.204Z,101256.91
2023-05-19T13:35:29.027Z,101253.81
2023-05-19T13:37:55.760Z,101248.22
2023-05-19T13:40:24.085Z,101243.03
2023-05-19T13:42:51.029Z,101242.41
2023-05-19T13:45:18.464Z,101243.28
2023-05-19T13:47:45.108Z,101240.28
2023-05-19T13:50:12.409Z,101226.25
2023-05-19T13:52:39.211Z,101217.25
2023-05-19T13:55:07.388Z,101220.88
2023-05-19T13:57:34.224Z,101221.19
2023-05-19T14:00:03.843Z,101218.91
2023-05-19T14:02:31.068Z,101216.56
2023-05-19T14:04:57.961Z,101213.31
2023-05-19T14:07:25.756Z,101209.81
2023-05-19T14:09:52.801Z,101209.63
2023-05-19T14:12:23.167Z,101205.50
2023-05-19T14:14:52.299Z,101202.69
2023-05-19T14:17:18.951Z,101214.44
2023-05-19T14:19:45.564Z,101199.16
2023-05-19T14:22:13.543Z,101207.53
2023-05-19T14:24:40.195Z,101202.59
2023-05-19T14:27:06.814Z,101205.09
2023-05-19T14:29:34.083Z,101204.97
2023-05-19T14:32:00.926Z,101204.31
2023-05-19T14:34:27.697Z,101201.41
2023-05-19T14:36:54.298Z,101204.50
2023-05-19T14:39:21.177Z,101201.84
2023-05-19T14:41:49.518Z,101176.84
2023-05-19T14:44:16.160Z,101189.19
2023-05-19T14:46:42.916Z,101188.25
2023-05-19T14:49:09.612Z,101186.63
2023-05-19T14:51:36.307Z,101192.50
2023-05-19T14:54:02.990Z,101188.16
2023-05-19T14:56:29.740Z,101177.63
2023-05-19T14:58:56.639Z,101182.66
2023-05-19T15:01:23.433Z,101188.72
2023-05-19T15:03:50.267Z,101185.91
2023-05-19T15:06:16.942Z,101185.13
2023-05-19T15:08:43.657Z,101180.16
2023-05-19T15:11:10.263Z,101185.78
2023-05-19T15:13:36.910Z,101183.28
2023-05-19T15:16:16.297Z,101176.44
2023-05-19T15:18:44.653Z,101168.56
2023-05-19T15:21:11.600Z,101173.00
2023-05-19T15:23:38.513Z,101160.44
2023-05-19T15:26:05.299Z,101161.81
2023-05-19T15:28:32.468Z,101162.84
2023-05-19T15:30:59.251Z,101156.63
2023-05-19T15:33:25.991Z,101164.88
2023-05-19T15:35:52.704Z,101166.56
2023-05-19T15:38:19.793Z,101159.50
2023-05-19T15:40:46.987Z,101152.78
2023-05-19T15:43:14.311Z,101145.84
2023-05-19T15:45:41.068Z,101139.88
2023-05-19T15:48:11.760Z,101144.38
2023-05-19T15:50:39.786Z,101142.41
2023-05-19T15:53:08.642Z,101139.81
2023-05-19T15:55:35.401Z,101141.78
2023-05-19T15:58:02.168Z,101139.81
2023-05-19T16:00:29.299Z,101132.72
2023-05-19T16:02:56.260Z,101132.78
2023-05-19T16:05:24.380Z,101133.66
2023-05-19T16:07:51.819Z,101137.50
2023-05-19T16:10:19.550Z,101135.81
2023-05-19T16:12:49.597Z,101120.88
2023-05-19T16:15:16.367Z,101127.19
2023-05-19T16:17:42.970Z,101119.94
2023-05-19T16:20:10.364Z,101114.59
2023-05-19T16:22:37.147Z,101114.03
2023-05-19T16:25:04.667Z,101115.25
2023-05-19T16:27:31.793Z,101097.88
2023-05-19T16:29:58.920Z,101102.88
2023-05-19T16:32:26.014Z,101095.81
2023-05-19T16:34:53.282Z,101092.22
2023-05-19T16:37:20.401Z,101092.69
2023-05-19T16:39:48.776Z,101088.06
2023-05-19T16:42:15.593Z,101116.44
2023-05-19T16:44:42.996Z,101086.47
2023-05-19T16:47:10.442Z,101082.59
2023-05-19T16:49:38.064Z,101069.16
2023-05-19T16:52:05.275Z,101073.19
2023-05-19T16:54:31.996Z,101089.56
2023-05-19T16:56:58.724Z,101085.22
2023-05-19T16:59:25.484Z,101083.81
2023-05-19T17:01:52.663Z,101087.84
2023-05-19T17:04:19.584Z,101082.78
2023-05-19T17:06:46.811Z,101069.13
2023-05-19T17:09:13.528Z,101074.88
2023-05-19T17:11:43.773Z,101070.53
2023-05-19T17:14:10.596Z,101083.44
2023-05-19T17:16:38.100Z,101070.81
2023-05-19T17:19:04.897Z,101073.69
2023-05-19T17:21:32.076Z,101063.31
2023-05-19T17:23:58.727Z,101079.97
2023-05-19T17:26:26.931Z,101074.50
2023-05-19T17:28:54.165Z,101079.84
2023-05-19T17:31:21.386Z,101086.31
2023-05-19T17:33:48.289Z,101084.03
2023-05-19T17:36:22.985Z,101087.59
2023-05-19T17:38:49.868Z,101091.22
2023-05-19T17:41:18.089Z,101062.50
2023-05-19T17:43:46.585Z,101092.38
2023-05-19T17:46:13.727Z,101085.59
2023-05-19T17:48:40.497Z,101071.56
2023-05-19T17:51:07.642Z,101088.81
2023-05-19T17:53:34.969Z,101087.97
2023-05-19T17:56:03.870Z,101087.22
2023-05-19T17:58:30.871Z,101098.56
2023-05-19T18:00:58.088Z,101085.63
2023-05-19T18:03:25.271Z,101097.22
2023-05-19T18:05:52.397Z,101097.28
2023-05-19T18:08:19.441Z,101131.56
2023-05-19T18:10:46.462Z,101100.97
2023-05-19T18:13:16.343Z,101105.69
2023-05-19T18:15:43.011Z,101101.28
2023-05-19T18:18:11.193Z,101107.91
2023-05-19T18:20:39.564Z,101086.38
2023-05-19T18:23:06.255Z,101087.00
2023-05-19T18:25:33.660Z,101098.63
2023-05-19T18:28:00.447Z,101123.50
2023-05-19T18:30:27.242Z,101125.75
2023-05-19T18:32:54.115Z,101108.63
2023-05-19T18:35:23.309Z,101097.06
2023-05-19T18:37:50.130Z,101100.69
2023-05-19T18:40:16.942Z,101101.50
2023-05-19T18:42:43.642Z,101115.06
2023-05-19T18:45:10.547Z,101110.41
2023-05-19T18:47:38.352Z,101108.22
2023-05-19T18:50:06.034Z,101106.09
2023-05-19T18:52:33.072Z,101122.13
2023-05-19T18:55:01.359Z,101111.38
2023-05-19T18:57:28.181Z,101134.34
2023-05-19T18:59:54.868Z,101105.03
2023-05-19T19:02:22.753Z,101116.66
2023-05-19T19:04:49.594Z,101121.63
2023-05-19T19:07:16.387Z,101130.19
2023-05-19T19:09:43.997Z,101123.59
2023-05-19T19:12:11.249Z,101097.91
2023-05-19T19:14:38.685Z,101116.72
2023-05-19T19:17:05.797Z,101128.91
2023-05-19T19:19:32.653Z,101141.66
2023-05-19T19:21:59.721Z,101133.94
2023-05-19T19:24:28.635Z,101164.91
2023-05-19T19:26:55.394Z,101148.63
2023-05-19T19:29:24.595Z,101150.03
2023-05-19T19:31:51.443Z,101172.72
2023-05-19T19:34:20.016Z,101151.69
2023-05-19T19:36:48.012Z,101162.75
2023-05-19T19:39:14.813Z,101155.00
2023-05-19T19:41:41.599Z,101162.78
2023-05-19T19:44:08.410Z,101190.97
2023-05-19T19:46:35.714Z,101152.28
2023-05-19T19:49:02.503Z,101167.50
2023-05-19T19:51:31.953Z,101157.28
2023-05-19T19:53:59.258Z,101160.00
2023-05-19T19:56:28.333Z,101170.50
2023-05-19T19:58:57.547Z,101166.06
2023-05-19T20:01:27.966Z,101179.06
2023-05-19T20:03:56.125Z,101186.84
2023-05-19T20:06:23.712Z,101191.50
2023-05-19T20:08:50.648Z,101191.50
2023-05-19T20:11:19.974Z,101184.28
2023-05-19T20:13:47.781Z,101200.91
2023-05-19T20:16:14.560Z,101185.94
2023-05-19T20:18:41.559Z,101198.63
2023-05-19T20:21:08.445Z,101197.53
2023-05-19T20:23:35.469Z,101221.84
2023-05-19T20:26:11.143Z,101180.00
2023-05-19T20:28:41.426Z,101178.59
2023-05-19T20:31:08.615Z,101185.16
2023-05-19T20:33:35.911Z,101195.03
2023-05-19T20:36:02.794Z,101189.72
2023-05-19T20:38:30.060Z,101217.59
2023-05-19T20:40:57.665Z,101200.91
2023-05-19T20:43:24.606Z,101227.44
2023-05-19T20:45:51.621Z,101203.34
2023-05-19T20:48:18.377Z,101226.84
2023-05-19T20:50:45.088Z,101225.63
2023-05-19T20:53:11.832Z,101213.97
2023-05-19T20:55:39.269Z,101228.31
2023-05-19T20:58:06.199Z,101217.72
2023-05-19T21:00:33.370Z,101227.03
2023-05-19T21:03:01.034Z,101227.97
2023-05-19T21:05:29.576Z,101214.28
2023-05-19T21:07:56.506Z,101213.59
2023-05-19T21:10:23.302Z,101256.50
2023-05-19T21:12:49.969Z,101209.19
2023-05-19T21:15:16.825Z,101247.06
2023-05-19T21:17:43.624Z,101226.56
2023-05-19T21:20:10.720Z,101257.53
2023-05-19T21:22:37.320Z,101268.50
2023-05-19T21:25:04.227Z,101259.91
2023-05-19T21:27:32.955Z,101263.75
2023-05-19T21:30:00.220Z,101262.13
2023-05-19T21:32:27.436Z,101246.63
2023-05-19T21:34:54.006Z,101256.63
2023-05-19T21:37:21.803Z,101253.78
2023-05-19T21:39:48.950Z,101257.81
2023-05-19T21:42:15.633Z,101265.81
2023-05-19T21:44:42.279Z,101263.59
2023-05-19T21:47:08.853Z,101266.84
2023-05-19T21:49:35.633Z,101263.53
2023-05-19T21:52:02.205Z,101256.84
2023-05-19T21:54:28.790Z,101264.03
2023-05-19T21:56:55.368Z,101265.63
2023-05-19T21:59:24.792Z,101271.56
2023-05-19T22:01:51.497Z,101271.25
2023-05-19T22:04:18.979Z,101275.91
2023-05-19T22:06:45.739Z,101265.34
2023-05-19T22:09:12.934Z,101274.09
2023-05-19T22:11:39.795Z,101267.44
2023-05-19T22:14:06.372Z,101265.59
2023-05-19T22:16:33.029Z,101267.59
2023-05-19T22:19:00.213Z,101268.91
2023-05-19T22:21:26.878Z,101270.91
2023-05-19T22:23:53.433Z,101270.25
2023-05-19T22:26:19.978Z,101262.97
2023-05-19T22:28:46.438Z,101273.03
2023-05-19T22:31:13.037Z,101264.72
2023-05-19T22:33:39.584Z,101266.56
2023-05-19T22:36:06.496Z,101268.38
2023-05-19T22:38:33.189Z,101272.34
2023-05-19T22:40:59.837Z,101267.16
2023-05-19T22:43:26.407Z,101259.06
2023-05-19T22:45:52.925Z,101260.66
2023-05-19T22:48:19.484Z,101267.72
2023-05-19T22:50:46.216Z,101268.78
2023-05-19T22:53:12.693Z,101265.81
2023-05-19T22:55:39.271Z,101266.22
2023-05-19T22:58:06.511Z,101266.59
2023-05-19T23:00:33.153Z,101262.53
2023-05-19T23:02:59.777Z,101259.19
2023-05-19T23:05:26.404Z,101261.94
2023-05-19T23:07:53.013Z,101263.72
2023-05-19T23:10:19.688Z,101269.69
2023-05-19T23:12:46.421Z,101262.53
2023-05-19T23:15:12.966Z,101259.41
2023-05-19T23:17:39.543Z,101254.88
2023-05-19T23:20:06.598Z,101256.56
2023-05-19T23:22:33.156Z,101252.53
2023-05-19T23:25:01.968Z,101248.00
2023-05-19T23:27:28.575Z,101251.44
2023-05-19T23:29:55.048Z,101253.34
2023-05-19T23:32:21.607Z,101254.75
2023-05-19T23:34:48.856Z,101252.50
2023-05-19T23:37:15.436Z,101254.63
2023-05-19T23:39:42.009Z,101252.03
2023-05-19T23:42:08.830Z,101260.25
2023-05-19T23:44:35.590Z,101258.47
2023-05-19T23:47:02.094Z,101257.38
2023-05-19T23:49:28.731Z,101254.06
2023-05-19T23:51:55.272Z,101261.44
2023-05-19T23:54:21.859Z,101248.19
2023-05-19T23:56:48.338Z,101260.91
2023-05-19T23:59:14.902Z,101256.28
